createdAt,value
2019-01-19T00:02:37.808Z,67.40
2019-01-19T00:05:18.628Z,67.30
2019-01-19T00:07:59.387Z,66.80
2019-01-19T00:10:39.966Z,66.90
2019-01-19T00:13:21.396Z,66.80
2019-01-19T00:16:02.847Z,66.50
2019-01-19T00:18:44.284Z,66.50
2019-01-19T00:21:24.905Z,66.60
2019-01-19T00:24:05.866Z,66.70
2019-01-19T00:26:46.596Z,66.40
2019-01-19T00:29:27.894Z,66.50
2019-01-19T00:32:09.336Z,66.60
2019-01-19T00:34:50.068Z,66.70
2019-01-19T00:37:30.701Z,66.50
2019-01-19T00:40:34.301Z,66.30
2019-01-19T00:43:36.983Z,66.10
2019-01-19T00:46:44.428Z,66.40
2019-01-19T00:49:25.461Z,66.50
2019-01-19T00:52:06.178Z,67.10
2019-01-19T00:54:47.660Z,67.00
2019-01-19T00:57:28.460Z,66.70
2019-01-19T01:00:09.116Z,66.50
2019-01-19T01:02:49.874Z,66.70
2019-01-19T01:05:30.697Z,67.00
2019-01-19T01:08:11.836Z,66.90
2019-01-19T01:10:52.384Z,67.00
2019-01-19T01:13:33.006Z,66.90
2019-01-19T01:16:13.786Z,66.70
2019-01-19T01:18:55.097Z,66.70
2019-01-19T01:21:35.789Z,66.70
2019-01-19T01:24:16.652Z,66.60
2019-01-19T01:26:57.317Z,66.70
2019-01-19T01:29:57.946Z,67.00
2019-01-19T01:35:51.977Z,66.60
2019-01-19T01:38:33.423Z,66.70
2019-01-19T01:41:14.774Z,66.70
2019-01-19T01:43:55.501Z,66.70
2019-01-19T01:46:36.505Z,66.60
2019-01-19T01:49:17.169Z,66.50
2019-01-19T01:51:58.605Z,66.60
2019-01-19T01:54:39.801Z,66.70
2019-01-19T01:57:21.260Z,66.60
2019-01-19T02:00:01.798Z,67.00
2019-01-19T02:02:42.480Z,66.80
2019-01-19T02:05:23.327Z,66.60
2019-01-19T02:08:04.401Z,66.60
2019-01-19T02:10:44.901Z,66.50
2019-01-19T02:13:29.948Z,66.30
2019-01-19T02:16:37.402Z,66.10
2019-01-19T02:22:40.053Z,66.80
2019-01-19T02:25:21.303Z,67.10
2019-01-19T02:28:02.764Z,67.10
2019-01-19T02:30:44.240Z,66.80
2019-01-19T02:33:25.620Z,66.80
2019-01-19T02:36:06.210Z,66.90
2019-01-19T02:38:46.812Z,67.00
2019-01-19T02:45:01.608Z,67.20
2019-01-19T02:47:43.049Z,67.30
2019-01-19T02:50:24.581Z,67.30
2019-01-19T02:53:06.052Z,67.10
2019-01-19T02:55:47.352Z,66.90
2019-01-19T02:58:28.638Z,67.10
2019-01-19T03:01:09.417Z,67.20
2019-01-19T03:03:50.045Z,67.10
2019-01-19T03:06:30.660Z,67.20
2019-01-19T03:09:12.192Z,67.20
2019-01-19T03:11:53.665Z,67.10
2019-01-19T03:14:35.075Z,67.60
2019-01-19T03:17:15.773Z,67.30
2019-01-19T03:19:57.072Z,67.10
2019-01-19T03:22:37.663Z,66.80
2019-01-19T03:25:19.158Z,66.80
2019-01-19T03:28:00.110Z,67.00
2019-01-19T03:30:40.794Z,66.70
2019-01-19T03:33:22.266Z,66.90
2019-01-19T03:36:04.565Z,66.90
2019-01-19T03:38:45.885Z,66.90
2019-01-19T03:41:32.234Z,66.90
2019-01-19T03:44:39.636Z,67.10
2019-01-19T03:47:20.957Z,67.20
2019-01-19T03:50:02.296Z,67.00
2019-01-19T03:52:43.166Z,66.60
2019-01-19T03:55:24.539Z,66.60
2019-01-19T03:58:05.896Z,66.90
2019-01-19T04:00:47.269Z,66.70
2019-01-19T04:03:27.973Z,67.00
2019-01-19T04:06:12.890Z,67.10
2019-01-19T04:08:51.831Z,67.00
2019-01-19T04:11:32.501Z,67.40
2019-01-19T04:14:13.238Z,68.50
2019-01-19T04:16:54.574Z,68.30
2019-01-19T04:19:36.004Z,68.20
2019-01-19T04:22:17.253Z,69.40
2019-01-19T04:24:57.829Z,69.20
2019-01-19T04:27:38.449Z,68.60
2019-01-19T04:30:19.086Z,68.70
2019-01-19T04:32:59.837Z,68.80
2019-01-19T04:35:41.166Z,68.30
2019-01-19T04:38:21.789Z,68.40
2019-01-19T04:41:02.700Z,68.70
2019-01-19T04:43:44.149Z,69.20
2019-01-19T04:46:24.827Z,69.30
2019-01-19T04:49:05.481Z,68.60
2019-01-19T04:51:46.021Z,68.30
2019-01-19T04:54:26.761Z,67.70
2019-01-19T04:57:08.078Z,67.70
2019-01-19T04:59:48.816Z,67.70
2019-01-19T05:02:29.368Z,67.30
2019-01-19T05:05:10.720Z,68.30
2019-01-19T05:07:51.661Z,67.50
2019-01-19T05:10:32.355Z,67.20
2019-01-19T05:13:13.056Z,67.30
2019-01-19T05:15:54.040Z,67.40
2019-01-19T05:18:35.426Z,67.40
2019-01-19T05:21:16.705Z,67.90
2019-01-19T05:23:58.169Z,68.00
2019-01-19T05:26:38.910Z,68.70
2019-01-19T05:29:20.012Z,69.30
2019-01-19T05:32:00.739Z,69.60
2019-01-19T05:34:41.637Z,69.60
2019-01-19T05:37:21.151Z,69.20
2019-01-19T05:40:01.879Z,69.60
2019-01-19T05:42:42.697Z,69.60
2019-01-19T05:45:23.449Z,69.40
2019-01-19T05:48:04.676Z,69.10
2019-01-19T05:50:45.356Z,69.80
2019-01-19T05:53:26.233Z,69.20
2019-01-19T05:56:05.676Z,68.90
2019-01-19T06:01:41.302Z,68.60
2019-01-19T06:04:22.171Z,68.80
2019-01-19T06:07:03.533Z,68.70
2019-01-19T06:09:44.781Z,68.60
2019-01-19T06:12:25.356Z,69.40
2019-01-19T06:15:06.049Z,69.10
2019-01-19T06:17:46.945Z,69.00
2019-01-19T06:20:27.560Z,69.00
2019-01-19T06:23:08.276Z,69.00
2019-01-19T06:25:49.622Z,69.60
2019-01-19T06:28:30.335Z,70.40
2019-01-19T06:31:10.944Z,70.40
2019-01-19T06:33:52.377Z,70.20
2019-01-19T06:36:32.928Z,70.30
2019-01-19T06:39:14.442Z,70.80
2019-01-19T06:41:55.090Z,70.70
2019-01-19T06:44:36.389Z,71.00
2019-01-19T06:47:16.957Z,71.40
2019-01-19T06:49:58.069Z,71.80
2019-01-19T06:52:38.911Z,72.50
2019-01-19T06:55:19.676Z,72.90
2019-01-19T07:01:07.804Z,72.10
2019-01-19T07:03:48.538Z,72.40
2019-01-19T07:06:29.289Z,72.30
2019-01-19T07:09:09.895Z,72.20
2019-01-19T07:11:50.940Z,71.80
2019-01-19T07:14:31.440Z,71.60
2019-01-19T07:17:12.440Z,73.30
2019-01-19T07:19:53.312Z,72.20
2019-01-19T07:22:33.889Z,71.90
2019-01-19T07:25:14.724Z,72.10
2019-01-19T07:27:55.908Z,73.20
2019-01-19T07:30:36.676Z,72.80
2019-01-19T07:33:18.008Z,72.90
2019-01-19T07:35:59.504Z,72.80
2019-01-19T07:38:40.341Z,73.80
2019-01-19T07:41:21.721Z,73.20
2019-01-19T07:44:02.478Z,72.60
2019-01-19T07:46:44.161Z,72.40
2019-01-19T07:49:25.260Z,72.70
2019-01-19T07:52:05.835Z,73.60
2019-01-19T07:54:46.412Z,74.10
2019-01-19T07:57:31.201Z,74.10
2019-01-19T08:00:13.185Z,74.60
2019-01-19T08:05:48.649Z,74.30
2019-01-19T08:08:30.094Z,73.80
2019-01-19T08:11:11.488Z,74.50
2019-01-19T08:13:52.204Z,74.70
2019-01-19T08:16:32.776Z,74.90
2019-01-19T08:19:13.410Z,75.50
2019-01-19T08:21:54.779Z,76.00
2019-01-19T08:24:35.444Z,77.00
2019-01-19T08:27:16.784Z,76.20
2019-01-19T08:29:58.186Z,76.50
2019-01-19T08:32:39.641Z,76.10
2019-01-19T08:35:21.104Z,76.20
2019-01-19T08:38:01.871Z,76.20
2019-01-19T08:40:43.010Z,75.80
2019-01-19T08:43:30.232Z,75.50
2019-01-19T08:46:11.591Z,75.60
2019-01-19T08:48:52.418Z,75.80
2019-01-19T08:51:33.780Z,76.00
2019-01-19T08:54:15.272Z,75.90
2019-01-19T08:56:56.121Z,75.40
2019-01-19T08:59:36.957Z,75.20
2019-01-19T09:02:17.680Z,75.50
2019-01-19T09:04:59.064Z,75.80
2019-01-19T09:07:40.420Z,75.70
2019-01-19T09:10:21.549Z,75.70
2019-01-19T09:13:02.775Z,76.20
2019-01-19T09:15:44.044Z,75.50
2019-01-19T09:18:24.852Z,75.80
2019-01-19T09:21:05.429Z,76.10
2019-01-19T09:24:04.879Z,76.20
2019-01-19T09:26:46.436Z,76.50
2019-01-19T09:29:27.954Z,76.60
2019-01-19T09:32:09.227Z,76.20
2019-01-19T09:34:50.078Z,76.60
2019-01-19T09:37:30.655Z,76.70
2019-01-19T09:40:11.330Z,81.50
2019-01-19T09:42:52.705Z,77.30
2019-01-19T09:45:34.062Z,76.60
2019-01-19T09:48:15.555Z,75.60
2019-01-19T09:50:56.733Z,75.00
2019-01-19T09:53:37.541Z,75.20
2019-01-19T09:56:18.652Z,75.90
2019-01-19T09:59:00.101Z,76.10
2019-01-19T10:01:40.867Z,76.00
2019-01-19T10:04:21.908Z,75.30
2019-01-19T10:07:03.210Z,75.40
2019-01-19T10:09:43.937Z,75.30
2019-01-19T10:12:24.728Z,75.90
2019-01-19T10:15:05.508Z,76.70
2019-01-19T10:17:46.379Z,75.60
2019-01-19T10:20:27.828Z,75.30
2019-01-19T10:23:09.374Z,75.30
2019-01-19T10:25:50.542Z,75.80
2019-01-19T10:28:30.749Z,76.00
2019-01-19T10:34:19.501Z,74.50
2019-01-19T10:37:00.225Z,74.40
2019-01-19T10:39:39.783Z,73.70
2019-01-19T10:42:28.225Z,73.10
2019-01-19T10:45:31.753Z,72.00
2019-01-19T10:51:06.696Z,71.50
2019-01-19T10:53:48.104Z,71.70
2019-01-19T10:56:28.852Z,71.40
2019-01-19T10:59:09.736Z,70.10
2019-01-19T11:01:50.622Z,69.20
2019-01-19T11:04:31.258Z,67.90
2019-01-19T11:07:12.182Z,67.60
2019-01-19T11:09:53.748Z,67.10
2019-01-19T11:12:34.309Z,68.70
2019-01-19T11:15:15.088Z,66.50
2019-01-19T11:17:56.528Z,66.20
2019-01-19T11:20:37.127Z,65.80
2019-01-19T11:23:17.781Z,66.50
2019-01-19T11:25:59.004Z,66.50
2019-01-19T11:28:39.695Z,66.70
2019-01-19T11:31:20.620Z,66.50
2019-01-19T11:34:02.929Z,67.30
2019-01-19T11:36:44.811Z,66.40
2019-01-19T11:39:26.298Z,66.60
2019-01-19T11:42:07.769Z,66.20
2019-01-19T11:44:49.411Z,65.30
2019-01-19T11:47:29.298Z,65.50
2019-01-19T11:50:29.969Z,66.00
2019-01-19T11:53:00.710Z,65.20
2019-01-19T11:55:42.146Z,64.60
2019-01-19T11:58:24.162Z,63.60
2019-01-19T12:01:07.226Z,64.10
2019-01-19T12:03:48.292Z,64.10
2019-01-19T12:06:29.270Z,64.10
2019-01-19T12:09:10.971Z,64.10
2019-01-19T12:11:52.122Z,64.00
2019-01-19T12:14:33.006Z,63.10
2019-01-19T12:17:14.147Z,62.90
2019-01-19T12:19:55.320Z,62.80
2019-01-19T12:22:36.625Z,63.10
2019-01-19T12:25:17.401Z,61.90
2019-01-19T12:27:58.019Z,62.10
2019-01-19T12:30:38.539Z,60.20
2019-01-19T12:33:19.416Z,60.90
2019-01-19T12:36:00.324Z,62.40
2019-01-19T12:38:41.005Z,61.60
2019-01-19T12:41:21.677Z,62.60
2019-01-19T12:44:02.249Z,63.50
2019-01-19T12:46:42.718Z,63.60
2019-01-19T12:49:23.604Z,63.10
2019-01-19T12:52:04.213Z,62.00
2019-01-19T12:54:45.998Z,63.10
2019-01-19T12:57:27.350Z,61.90
2019-01-19T13:00:08.917Z,63.40
2019-01-19T13:02:50.180Z,62.20
2019-01-19T13:05:33.074Z,61.80
2019-01-19T13:08:14.457Z,62.60
2019-01-19T13:10:55.985Z,62.40
2019-01-19T13:13:37.307Z,62.00
2019-01-19T13:16:17.903Z,62.90
2019-01-19T13:18:59.236Z,61.60
2019-01-19T13:21:40.572Z,62.00
2019-01-19T13:24:21.109Z,62.10
2019-01-19T13:27:01.724Z,62.20
2019-01-19T13:29:42.233Z,63.40
2019-01-19T13:32:23.557Z,63.70
2019-01-19T13:35:10.608Z,64.10
2019-01-19T13:38:18.024Z,63.80
2019-01-19T13:40:58.697Z,64.00
2019-01-19T13:43:39.429Z,64.30
2019-01-19T13:46:21.468Z,64.70
2019-01-19T13:49:02.947Z,65.40
2019-01-19T13:51:44.762Z,65.30
2019-01-19T13:54:52.244Z,65.60
2019-01-19T13:57:32.745Z,65.30
2019-01-19T14:00:18.628Z,64.40
2019-01-19T14:02:56.465Z,65.10
2019-01-19T14:05:37.845Z,65.80
2019-01-19T14:08:18.465Z,66.10
2019-01-19T14:10:59.609Z,65.50
2019-01-19T14:13:40.469Z,66.00
2019-01-19T14:16:22.025Z,65.50
2019-01-19T14:19:03.335Z,66.00
2019-01-19T14:22:04.105Z,66.60
2019-01-19T14:25:11.757Z,66.60
2019-01-19T14:27:52.600Z,66.70
2019-01-19T14:30:33.224Z,66.50
2019-01-19T14:33:13.784Z,66.60
2019-01-19T14:35:55.104Z,67.50
2019-01-19T14:38:35.881Z,67.10
2019-01-19T14:41:16.710Z,67.30
2019-01-19T14:43:59.071Z,67.00
2019-01-19T14:46:40.309Z,67.70
2019-01-19T14:49:21.708Z,67.90
2019-01-19T14:52:02.383Z,67.40
2019-01-19T14:55:03.098Z,67.60
2019-01-19T14:58:10.721Z,67.70
2019-01-19T15:00:51.944Z,68.20
2019-01-19T15:03:33.136Z,68.90
2019-01-19T15:06:13.883Z,69.20
2019-01-19T15:08:54.789Z,68.90
2019-01-19T15:11:35.896Z,69.10
2019-01-19T15:14:17.206Z,68.60
2019-01-19T15:16:58.018Z,69.10
2019-01-19T15:19:39.484Z,69.50
2019-01-19T15:22:21.179Z,69.10
2019-01-19T15:25:02.296Z,68.70
2019-01-19T15:27:43.086Z,68.90
2019-01-19T15:30:23.757Z,69.30
2019-01-19T15:33:05.313Z,70.00
2019-01-19T15:35:45.952Z,69.20
2019-01-19T15:38:26.795Z,69.60
2019-01-19T15:41:07.566Z,70.00
2019-01-19T15:43:48.680Z,70.30
2019-01-19T15:46:29.356Z,70.40
2019-01-19T15:49:30.010Z,69.60
2019-01-19T15:52:37.493Z,70.10
2019-01-19T15:55:18.318Z,70.00
2019-01-19T15:57:58.901Z,69.60
2019-01-19T16:00:40.396Z,70.10
2019-01-19T16:03:21.030Z,70.50
2019-01-19T16:06:02.096Z,70.40
2019-01-19T16:08:43.080Z,69.50
2019-01-19T16:11:23.953Z,69.80
2019-01-19T16:14:04.680Z,70.80
2019-01-19T16:16:45.561Z,71.30
2019-01-19T16:19:26.436Z,71.70
2019-01-19T16:22:07.243Z,71.50
2019-01-19T16:24:48.225Z,70.60
2019-01-19T16:27:29.332Z,71.40
2019-01-19T16:30:09.824Z,72.00
2019-01-19T16:32:50.696Z,72.60
2019-01-19T16:35:32.017Z,72.60
2019-01-19T16:38:13.495Z,72.60
2019-01-19T16:40:54.037Z,72.80
2019-01-19T16:43:35.448Z,73.10
2019-01-19T16:46:16.011Z,73.40
2019-01-19T16:48:56.852Z,73.50
2019-01-19T16:51:38.133Z,73.50
2019-01-19T16:54:19.675Z,73.20
2019-01-19T16:57:04.249Z,72.60
2019-01-19T17:00:07.995Z,72.80
2019-01-19T17:03:15.406Z,72.80
2019-01-19T17:05:56.785Z,73.30
2019-01-19T17:08:38.107Z,73.20
2019-01-19T17:11:18.894Z,73.20
2019-01-19T17:14:00.291Z,73.00
2019-01-19T17:16:41.480Z,73.10
2019-01-19T17:19:22.895Z,73.30
2019-01-19T17:22:03.565Z,73.40
2019-01-19T17:24:44.948Z,73.20
2019-01-19T17:27:26.288Z,73.30
2019-01-19T17:30:07.040Z,73.10
2019-01-19T17:32:48.489Z,73.10
2019-01-19T17:35:29.368Z,72.90
2019-01-19T17:38:10.716Z,72.80
2019-01-19T17:40:51.489Z,72.80
2019-01-19T17:43:32.861Z,72.60
2019-01-19T17:46:14.204Z,72.60
2019-01-19T17:48:54.841Z,72.90
2019-01-19T17:51:35.556Z,72.90
2019-01-19T17:54:16.946Z,73.00
2019-01-19T17:56:58.417Z,72.60
2019-01-19T17:59:39.821Z,72.60
2019-01-19T18:02:20.397Z,72.80
2019-01-19T18:05:01.727Z,72.90
2019-01-19T18:07:42.496Z,72.80
2019-01-19T18:10:23.896Z,72.80
2019-01-19T18:13:04.450Z,72.80
2019-01-19T18:16:03.994Z,73.00
2019-01-19T18:19:11.396Z,73.00
2019-01-19T18:21:58.312Z,73.30
2019-01-19T18:25:12.087Z,73.40
2019-01-19T18:28:19.689Z,92.50
2019-01-19T18:31:01.129Z,94.60
2019-01-19T18:33:42.344Z,82.90
2019-01-19T18:36:22.926Z,76.60
2019-01-19T18:39:05.072Z,74.90
2019-01-19T18:41:46.226Z,74.70
2019-01-19T18:44:26.860Z,75.50
2019-01-19T18:47:08.313Z,75.30
2019-01-19T18:49:48.961Z,75.50
2019-01-19T18:56:24.113Z,74.70
2019-01-19T18:59:31.562Z,74.50
2019-01-19T19:02:12.132Z,74.90
2019-01-19T19:04:52.823Z,85.60
2019-01-19T19:07:34.166Z,77.10
2019-01-19T19:10:15.424Z,74.40
2019-01-19T19:12:56.466Z,74.10
2019-01-19T19:15:37.788Z,74.20
2019-01-19T19:18:18.451Z,74.40
2019-01-19T19:20:59.270Z,74.50
2019-01-19T19:23:39.802Z,74.70
2019-01-19T19:26:20.625Z,74.80
2019-01-19T19:29:01.552Z,74.80
2019-01-19T19:31:42.508Z,74.80
2019-01-19T19:34:49.989Z,74.80
2019-01-19T19:37:57.470Z,75.00
2019-01-19T19:40:38.623Z,74.90
2019-01-19T19:43:19.229Z,75.10
2019-01-19T19:46:02.777Z,75.10
2019-01-19T19:48:44.073Z,74.80
2019-01-19T19:51:24.853Z,74.70
2019-01-19T19:54:05.656Z,74.50
2019-01-19T19:56:44.237Z,74.30
2019-01-19T19:59:32.592Z,74.10
2019-01-19T20:02:13.569Z,74.20
2019-01-19T20:04:54.777Z,74.20
2019-01-19T20:07:36.199Z,74.00
2019-01-19T20:10:17.483Z,74.00
2019-01-19T20:12:58.073Z,73.90
2019-01-19T20:15:38.824Z,73.90
2019-01-19T20:18:19.740Z,73.90
2019-01-19T20:21:00.391Z,73.80
2019-01-19T20:23:41.920Z,74.00
2019-01-19T20:26:22.811Z,74.00
2019-01-19T20:29:04.321Z,74.10
2019-01-19T20:31:45.660Z,74.10
2019-01-19T20:34:26.408Z,74.00
2019-01-19T20:37:08.001Z,73.80
2019-01-19T20:39:48.696Z,73.50
2019-01-19T20:42:29.360Z,73.50
2019-01-19T20:45:10.233Z,73.50
2019-01-19T20:47:51.040Z,73.60
2019-01-19T20:50:31.769Z,73.60
2019-01-19T20:53:12.336Z,73.60
2019-01-19T20:55:53.130Z,73.50
2019-01-19T20:58:34.521Z,73.30
2019-01-19T21:01:15.732Z,73.10
2019-01-19T21:03:56.312Z,73.20
2019-01-19T21:06:37.218Z,73.40
2019-01-19T21:09:18.570Z,73.30
2019-01-19T21:11:59.202Z,73.20
2019-01-19T21:14:40.530Z,73.10
2019-01-19T21:17:21.348Z,73.50
2019-01-19T21:20:03.153Z,73.50
2019-01-19T21:22:44.224Z,73.50
2019-01-19T21:25:24.989Z,73.90
2019-01-19T21:28:05.700Z,73.80
2019-01-19T21:30:46.411Z,74.20
2019-01-19T21:33:27.113Z,74.20
2019-01-19T21:36:07.799Z,74.00
2019-01-19T21:38:49.255Z,74.90
2019-01-19T21:41:30.551Z,74.50
2019-01-19T21:44:11.118Z,74.20
2019-01-19T21:46:51.620Z,74.10
2019-01-19T21:49:32.312Z,75.00
2019-01-19T21:52:13.221Z,73.90
2019-01-19T21:54:54.623Z,74.20
2019-01-19T21:57:35.170Z,74.20
2019-01-19T22:00:15.893Z,74.20
2019-01-19T22:02:57.247Z,74.10
2019-01-19T22:05:38.021Z,74.50
2019-01-19T22:08:19.144Z,74.50
2019-01-19T22:11:00.436Z,75.70
2019-01-19T22:13:40.924Z,75.90
2019-01-19T22:16:22.372Z,75.80
2019-01-19T22:19:02.836Z,77.00
2019-01-19T22:21:43.668Z,76.70
2019-01-19T22:24:24.393Z,77.20
2019-01-19T22:27:06.661Z,77.00
2019-01-19T22:29:47.768Z,76.80
2019-01-19T22:32:29.198Z,76.50
2019-01-19T22:35:10.617Z,76.10
2019-01-19T22:37:51.252Z,75.90
2019-01-19T22:40:32.549Z,75.90
2019-01-19T22:43:13.715Z,75.80
2019-01-19T22:45:54.978Z,75.50
2019-01-19T22:48:34.489Z,75.20
2019-01-19T22:51:15.318Z,75.00
2019-01-19T22:53:56.728Z,74.90
2019-01-19T22:56:38.132Z,74.80
2019-01-19T22:59:18.842Z,74.70
2019-01-19T23:01:59.627Z,74.50
2019-01-19T23:04:40.942Z,74.30
2019-01-19T23:07:22.564Z,74.30
2019-01-19T23:10:03.372Z,74.10
2019-01-19T23:12:44.260Z,74.00
2019-01-19T23:15:25.725Z,74.00
2019-01-19T23:18:07.373Z,73.90
2019-01-19T23:20:48.712Z,73.80
2019-01-19T23:23:29.376Z,73.60
2019-01-19T23:26:10.608Z,73.70
2019-01-19T23:28:51.517Z,73.60
2019-01-19T23:31:32.161Z,73.60
2019-01-19T23:34:13.368Z,73.70
2019-01-19T23:36:54.789Z,73.80
2019-01-19T23:39:35.593Z,73.60
2019-01-19T23:42:16.772Z,73.60
2019-01-19T23:44:58.267Z,73.80
2019-01-19T23:47:38.805Z,73.80
2019-01-19T23:50:20.240Z,73.90
2019-01-19T23:53:00.860Z,73.70
2019-01-19T23:55:40.321Z,73.60
